createdAt,value
2023-05-21T00:01:25.627Z,12.97
2023-05-21T00:03:52.693Z,12.94
2023-05-21T00:06:20.792Z,12.95
2023-05-21T00:08:47.313Z,12.90
2023-05-21T00:11:13.823Z,12.87
2023-05-21T00:13:40.317Z,12.85
2023-05-21T00:16:07.705Z,12.86
2023-05-21T00:18:34.332Z,12.87
2023-05-21T00:21:01.763Z,12.84
2023-05-21T00:23:32.487Z,12.79
2023-05-21T00:25:59.983Z,12.75
2023-05-21T00:28:26.687Z,12.70
2023-05-21T00:30:53.133Z,12.67
2023-05-21T00:33:21.769Z,12.64
2023-05-21T00:35:48.297Z,12.58
2023-05-21T00:38:17.685Z,12.59
2023-05-21T00:40:44.706Z,12.59
2023-05-21T00:43:11.280Z,12.56
2023-05-21T00:45:38.489Z,12.60
2023-05-21T00:48:06.428Z,12.54
2023-05-21T00:50:33.184Z,12.53
2023-05-21T00:52:59.831Z,12.45
2023-05-21T00:55:26.620Z,12.43
2023-05-21T00:57:53.663Z,12.39
2023-05-21T01:00:21.217Z,12.34
2023-05-21T01:02:47.930Z,12.32
2023-05-21T01:05:15.541Z,12.32
2023-05-21T01:07:43.355Z,12.29
2023-05-21T01:10:11.420Z,12.24
2023-05-21T01:12:40.482Z,12.20
2023-05-21T01:15:07.763Z,12.20
2023-05-21T01:17:35.549Z,12.17
2023-05-21T01:20:10.004Z,12.18
2023-05-21T01:22:41.806Z,12.13
2023-05-21T01:25:08.805Z,12.17
2023-05-21T01:27:35.846Z,12.11
2023-05-21T01:30:02.558Z,12.19
2023-05-21T01:32:40.652Z,12.13
2023-05-21T01:35:14.480Z,12.15
2023-05-21T01:38:02.893Z,12.22
2023-05-21T01:40:49.929Z,12.21
2023-05-21T01:43:18.340Z,12.18
2023-05-21T01:45:47.316Z,12.29
2023-05-21T01:48:14.821Z,12.13
2023-05-21T01:50:44.714Z,12.05
2023-05-21T01:53:11.226Z,12.06
2023-05-21T01:55:41.779Z,12.03
2023-05-21T01:58:09.135Z,12.05
2023-05-21T02:00:35.948Z,12.08
2023-05-21T02:03:02.506Z,12.07
2023-05-21T02:05:29.681Z,12.08
2023-05-21T02:07:56.931Z,12.16
2023-05-21T02:10:23.442Z,12.03
2023-05-21T02:12:50.102Z,12.05
2023-05-21T02:15:19.780Z,11.98
2023-05-21T02:17:46.926Z,12.06
2023-05-21T02:20:14.452Z,11.98
2023-05-21T02:22:43.123Z,12.16
2023-05-21T02:25:10.674Z,12.07
2023-05-21T02:27:38.530Z,12.03
2023-05-21T02:30:07.813Z,11.94
2023-05-21T02:32:35.492Z,11.94
2023-05-21T02:35:03.799Z,12.03
2023-05-21T02:37:33.789Z,12.03
2023-05-21T02:40:01.038Z,11.92
2023-05-21T02:42:27.826Z,11.99
2023-05-21T02:44:54.475Z,11.96
2023-05-21T02:47:23.534Z,11.94
2023-05-21T02:49:51.458Z,11.87
2023-05-21T02:52:18.969Z,11.86
2023-05-21T02:54:46.817Z,11.90
2023-05-21T02:57:14.049Z,12.00
2023-05-21T02:59:40.611Z,11.89
2023-05-21T03:02:07.585Z,11.87
2023-05-21T03:04:38.956Z,11.98
2023-05-21T03:07:06.117Z,11.82
2023-05-21T03:09:32.710Z,11.78
2023-05-21T03:11:59.612Z,11.79
2023-05-21T03:14:26.093Z,11.86
2023-05-21T03:16:52.808Z,11.75
2023-05-21T03:19:20.833Z,11.71
2023-05-21T03:21:48.971Z,11.71
2023-05-21T03:24:15.428Z,11.72
2023-05-21T03:26:41.992Z,11.68
2023-05-21T03:29:08.508Z,11.64
2023-05-21T03:31:35.078Z,11.59
2023-05-21T03:34:01.770Z,11.63
2023-05-21T03:36:28.526Z,11.62
2023-05-21T03:38:55.041Z,11.60
2023-05-21T03:41:22.000Z,11.70
2023-05-21T03:43:48.503Z,11.72
2023-05-21T03:46:15.090Z,11.69
2023-05-21T03:48:41.841Z,11.78
2023-05-21T03:51:09.483Z,11.86
2023-05-21T03:53:36.589Z,11.85
2023-05-21T03:56:03.348Z,12.04
2023-05-21T03:58:30.537Z,12.18
2023-05-21T04:00:56.950Z,12.06
2023-05-21T04:03:23.798Z,12.10
2023-05-21T04:05:50.755Z,11.75
2023-05-21T04:08:17.219Z,11.63
2023-05-21T04:10:43.888Z,11.66
2023-05-21T04:13:10.496Z,11.88
2023-05-21T04:15:38.678Z,11.81
2023-05-21T04:18:07.152Z,11.68
2023-05-21T04:20:33.749Z,11.64
2023-05-21T04:23:01.087Z,11.81
2023-05-21T04:25:27.675Z,11.83
2023-05-21T04:27:55.657Z,11.90
2023-05-21T04:30:22.104Z,11.97
2023-05-21T04:32:48.889Z,11.91
2023-05-21T04:35:15.921Z,11.85
2023-05-21T04:37:42.729Z,11.79
2023-05-21T04:40:09.923Z,11.83
2023-05-21T04:42:36.954Z,12.00
2023-05-21T04:45:03.706Z,11.93
2023-05-21T04:47:30.594Z,11.94
2023-05-21T04:49:57.226Z,11.95
2023-05-21T04:52:24.969Z,11.96
2023-05-21T04:54:51.803Z,12.00
2023-05-21T04:57:18.356Z,11.98
2023-05-21T04:59:44.870Z,12.05
2023-05-21T05:02:11.497Z,12.13
2023-05-21T05:04:38.136Z,12.22
2023-05-21T05:07:04.990Z,12.28
2023-05-21T05:09:31.663Z,12.22
2023-05-21T05:11:58.220Z,12.28
2023-05-21T05:14:24.659Z,12.30
2023-05-21T05:16:51.439Z,12.32
2023-05-21T05:19:17.990Z,12.27
2023-05-21T05:21:44.658Z,12.30
2023-05-21T05:24:11.285Z,12.34
2023-05-21T05:26:37.788Z,12.43
2023-05-21T05:29:04.331Z,12.42
2023-05-21T05:31:31.090Z,12.42
2023-05-21T05:33:58.338Z,12.51
2023-05-21T05:36:24.964Z,12.56
2023-05-21T05:38:51.532Z,12.59
2023-05-21T05:41:18.192Z,12.72
2023-05-21T05:43:44.958Z,13.00
2023-05-21T05:46:11.423Z,13.11
2023-05-21T05:48:38.026Z,13.18
2023-05-21T05:51:05.158Z,13.17
2023-05-21T05:53:32.370Z,13.02
2023-05-21T05:55:59.745Z,13.16
2023-05-21T05:58:26.584Z,13.39
2023-05-21T06:00:53.169Z,13.44
2023-05-21T06:03:20.123Z,13.48
2023-05-21T06:05:47.108Z,13.79
2023-05-21T06:08:14.027Z,13.84
2023-05-21T06:10:40.751Z,13.69
2023-05-21T06:13:07.243Z,13.58
2023-05-21T06:15:33.912Z,13.83
2023-05-21T06:18:01.182Z,14.15
2023-05-21T06:20:29.847Z,14.40
2023-05-21T06:22:56.492Z,14.36
2023-05-21T06:25:23.099Z,14.38
2023-05-21T06:27:49.587Z,14.59
2023-05-21T06:30:16.020Z,14.55
2023-05-21T06:32:43.472Z,14.47
2023-05-21T06:35:10.198Z,15.02
2023-05-21T06:37:36.875Z,14.96
2023-05-21T06:40:03.810Z,14.59
2023-05-21T06:42:31.827Z,14.08
2023-05-21T06:44:58.255Z,14.01
2023-05-21T06:47:25.012Z,13.92
2023-05-21T06:49:51.547Z,14.06
2023-05-21T06:52:18.734Z,14.14
2023-05-21T06:54:45.904Z,14.20
2023-05-21T06:57:14.707Z,14.33
2023-05-21T06:59:41.398Z,14.59
2023-05-21T07:02:07.921Z,14.74
2023-05-21T07:04:35.267Z,14.61
2023-05-21T07:07:04.836Z,14.45
2023-05-21T07:09:31.657Z,14.69
2023-05-21T07:11:58.525Z,14.46
2023-05-21T07:14:25.960Z,14.34
2023-05-21T07:16:52.802Z,14.47
2023-05-21T07:19:19.520Z,14.83
2023-05-21T07:21:46.397Z,14.93
2023-05-21T07:24:13.002Z,14.87
2023-05-21T07:26:40.315Z,15.06
2023-05-21T07:29:06.880Z,15.24
2023-05-21T07:31:33.432Z,15.41
2023-05-21T07:34:00.677Z,15.41
2023-05-21T07:36:27.239Z,15.56
2023-05-21T07:38:54.039Z,15.61
2023-05-21T07:41:21.922Z,15.81
2023-05-21T07:43:48.773Z,16.03
2023-05-21T07:46:15.384Z,16.30
2023-05-21T07:48:43.552Z,16.60
2023-05-21T07:51:11.436Z,16.70
2023-05-21T07:53:38.160Z,16.45
2023-05-21T07:56:04.817Z,16.58
2023-05-21T07:58:31.348Z,16.94
2023-05-21T08:00:58.412Z,17.13
2023-05-21T08:03:27.852Z,17.44
2023-05-21T08:05:54.608Z,17.27
2023-05-21T08:08:22.023Z,17.36
2023-05-21T08:10:49.123Z,17.43
2023-05-21T08:13:16.739Z,17.88
2023-05-21T08:15:43.334Z,18.16
2023-05-21T08:18:10.219Z,17.92
2023-05-21T08:20:37.023Z,18.21
2023-05-21T08:23:04.084Z,17.87
2023-05-21T08:25:30.595Z,17.55
2023-05-21T08:27:57.110Z,17.68
2023-05-21T08:30:23.516Z,17.85
2023-05-21T08:32:50.780Z,17.34
2023-05-21T08:35:17.312Z,17.36
2023-05-21T08:37:43.722Z,17.52
2023-05-21T08:40:12.193Z,17.51
2023-05-21T08:42:44.996Z,17.74
2023-05-21T08:45:16.714Z,18.03
2023-05-21T08:47:44.438Z,17.94
2023-05-21T08:50:14.028Z,17.45
2023-05-21T08:52:41.226Z,17.10
2023-05-21T08:55:09.122Z,17.06
2023-05-21T08:57:37.154Z,16.93
2023-05-21T09:00:07.135Z,16.99
2023-05-21T09:02:36.381Z,17.07
2023-05-21T09:05:04.448Z,17.31
2023-05-21T09:07:34.444Z,17.39
2023-05-21T09:10:10.517Z,17.40
2023-05-21T09:12:37.850Z,17.58
2023-05-21T09:15:05.282Z,17.63
2023-05-21T09:17:32.657Z,17.58
2023-05-21T09:20:16.418Z,17.89
2023-05-21T09:22:48.493Z,17.87
2023-05-21T09:25:17.671Z,18.15
2023-05-21T09:27:44.527Z,18.04
2023-05-21T09:30:17.151Z,18.08
2023-05-21T09:32:44.719Z,18.07
2023-05-21T09:35:13.273Z,18.13
2023-05-21T09:37:45.020Z,18.41
2023-05-21T09:40:22.671Z,18.11
2023-05-21T09:42:54.462Z,18.27
2023-05-21T09:45:22.317Z,18.48
2023-05-21T09:47:50.450Z,18.56
2023-05-21T09:50:31.374Z,18.59
2023-05-21T09:52:58.479Z,18.63
2023-05-21T09:55:26.527Z,18.45
2023-05-21T09:57:53.539Z,18.90
2023-05-21T10:00:22.760Z,19.00
2023-05-21T10:02:54.753Z,19.00
2023-05-21T10:05:26.497Z,19.04
2023-05-21T10:07:59.136Z,19.08
2023-05-21T10:10:28.486Z,19.40
2023-05-21T10:13:04.155Z,19.06
2023-05-21T10:15:35.002Z,20.23
2023-05-21T10:18:02.449Z,22.41
2023-05-21T10:20:29.219Z,23.48
2023-05-21T10:22:56.847Z,24.38
2023-05-21T10:25:25.236Z,26.24
2023-05-21T10:27:55.579Z,26.53
2023-05-21T10:30:23.263Z,26.15
2023-05-21T10:32:50.544Z,27.58
2023-05-21T10:35:17.352Z,28.36
2023-05-21T10:37:45.421Z,26.48
2023-05-21T10:40:13.191Z,28.84
2023-05-21T10:42:57.985Z,27.15
2023-05-21T10:46:07.485Z,28.27
2023-05-21T10:48:52.390Z,29.33
2023-05-21T10:51:22.168Z,26.95
2023-05-21T10:54:36.339Z,27.17
2023-05-21T10:57:33.139Z,27.62
2023-05-21T11:00:00.053Z,26.64
2023-05-21T11:02:28.202Z,26.58
2023-05-21T11:05:01.098Z,25.45
2023-05-21T11:07:58.950Z,24.83
2023-05-21T11:10:40.475Z,23.80
2023-05-21T11:13:14.937Z,23.05
2023-05-21T11:16:05.060Z,23.68
2023-05-21T11:18:37.763Z,23.80
2023-05-21T11:21:08.612Z,23.18
2023-05-21T11:23:53.842Z,24.01
2023-05-21T11:26:23.494Z,24.29
2023-05-21T11:28:51.342Z,24.68
2023-05-21T11:31:25.732Z,24.04
2023-05-21T11:34:10.944Z,23.70
2023-05-21T11:36:38.148Z,24.09
2023-05-21T11:39:17.572Z,24.50
2023-05-21T11:42:04.651Z,23.71
2023-05-21T11:44:49.376Z,24.26
2023-05-21T11:47:17.708Z,24.13
2023-05-21T11:49:44.791Z,23.66
2023-05-21T11:52:12.720Z,24.10
2023-05-21T11:54:59.977Z,24.60
2023-05-21T11:57:31.061Z,23.92
2023-05-21T11:59:59.664Z,23.58
2023-05-21T12:02:28.568Z,24.22
2023-05-21T12:04:59.904Z,23.53
2023-05-21T12:07:31.637Z,23.55
2023-05-21T12:09:58.818Z,24.02
2023-05-21T12:12:30.794Z,23.57
2023-05-21T12:15:02.545Z,23.26
2023-05-21T12:17:31.427Z,23.44
2023-05-21T12:19:58.039Z,23.25
2023-05-21T12:22:25.461Z,23.78
2023-05-21T12:24:53.711Z,23.76
2023-05-21T12:27:21.779Z,23.54
2023-05-21T12:29:51.898Z,23.92
2023-05-21T12:32:21.650Z,23.74
2023-05-21T12:34:50.422Z,24.29
2023-05-21T12:37:35.665Z,24.71
2023-05-21T12:40:11.969Z,24.89
2023-05-21T12:42:40.329Z,25.04
2023-05-21T12:45:08.181Z,24.88
2023-05-21T12:47:35.890Z,25.22
2023-05-21T12:50:11.952Z,24.55
2023-05-21T12:52:40.947Z,24.57
2023-05-21T12:55:09.490Z,24.74
2023-05-21T12:57:39.200Z,24.91
2023-05-21T13:00:07.293Z,25.03
2023-05-21T13:02:39.599Z,24.44
2023-05-21T13:05:17.521Z,25.34
2023-05-21T13:07:46.718Z,25.19
2023-05-21T13:10:16.507Z,25.17
2023-05-21T13:12:44.697Z,25.06
2023-05-21T13:15:11.735Z,25.49
2023-05-21T13:17:38.367Z,25.32
2023-05-21T13:20:21.691Z,25.49
2023-05-21T13:22:50.969Z,25.49
2023-05-21T13:25:22.516Z,24.98
2023-05-21T13:27:51.234Z,25.28
2023-05-21T13:30:18.904Z,25.24
2023-05-21T13:32:46.285Z,25.41
2023-05-21T13:35:13.040Z,25.85
2023-05-21T13:37:40.541Z,25.96
2023-05-21T13:40:11.964Z,25.81
2023-05-21T13:42:38.903Z,25.69
2023-05-21T13:45:07.580Z,25.24
2023-05-21T13:47:37.587Z,24.83
2023-05-21T13:50:07.126Z,25.23
2023-05-21T13:52:34.626Z,25.62
2023-05-21T13:55:01.413Z,25.56
2023-05-21T13:57:30.649Z,25.62
2023-05-21T13:59:57.918Z,25.06
2023-05-21T14:02:24.813Z,26.26
2023-05-21T14:04:51.560Z,26.42
2023-05-21T14:07:18.074Z,25.93
2023-05-21T14:09:44.552Z,25.79
2023-05-21T14:12:11.784Z,25.51
2023-05-21T14:14:38.339Z,25.47
2023-05-21T14:17:06.352Z,25.08
2023-05-21T14:19:33.222Z,25.80
2023-05-21T14:21:59.888Z,25.73
2023-05-21T14:24:26.756Z,26.25
2023-05-21T14:26:53.567Z,25.85
2023-05-21T14:29:20.263Z,25.64
2023-05-21T14:31:47.050Z,25.74
2023-05-21T14:34:13.511Z,25.98
2023-05-21T14:36:40.102Z,26.12
2023-05-21T14:39:06.857Z,25.67
2023-05-21T14:41:33.459Z,25.26
2023-05-21T14:43:59.963Z,25.90
2023-05-21T14:46:26.584Z,25.56
2023-05-21T14:48:58.974Z,25.85
2023-05-21T14:51:25.790Z,25.86
2023-05-21T14:53:52.328Z,25.31
2023-05-21T14:56:21.608Z,25.37
2023-05-21T14:58:48.330Z,25.51
2023-05-21T15:01:14.839Z,25.93
2023-05-21T15:03:41.525Z,25.35
2023-05-21T15:06:08.252Z,25.59
2023-05-21T15:08:35.531Z,26.20
2023-05-21T15:11:02.416Z,26.12
2023-05-21T15:13:29.398Z,25.81
2023-05-21T15:15:56.410Z,25.71
2023-05-21T15:18:24.644Z,26.26
2023-05-21T15:20:51.462Z,26.37
2023-05-21T15:23:18.123Z,26.01
2023-05-21T15:25:45.722Z,26.02
2023-05-21T15:28:12.763Z,25.70
2023-05-21T15:30:39.888Z,25.86
2023-05-21T15:33:06.442Z,25.85
2023-05-21T15:35:33.376Z,25.96
2023-05-21T15:38:00.214Z,25.80
2023-05-21T15:40:27.455Z,25.78
2023-05-21T15:42:54.464Z,25.80
2023-05-21T15:45:20.972Z,25.37
2023-05-21T15:47:47.664Z,25.66
2023-05-21T15:50:14.315Z,25.37
2023-05-21T15:52:42.040Z,25.39
2023-05-21T15:55:09.313Z,25.44
2023-05-21T15:57:36.227Z,25.91
2023-05-21T16:00:03.891Z,25.89
2023-05-21T16:02:30.650Z,25.95
2023-05-21T16:04:57.582Z,26.54
2023-05-21T16:07:24.505Z,26.10
2023-05-21T16:09:51.239Z,25.76
2023-05-21T16:12:18.236Z,25.68
2023-05-21T16:14:45.581Z,25.53
2023-05-21T16:17:12.112Z,24.82
2023-05-21T16:19:38.876Z,24.76
2023-05-21T16:22:05.805Z,24.72
2023-05-21T16:24:32.380Z,24.79
2023-05-21T16:26:58.862Z,24.69
2023-05-21T16:29:25.495Z,24.68
2023-05-21T16:31:52.261Z,24.69
2023-05-21T16:34:19.027Z,24.46
2023-05-21T16:36:45.494Z,24.42
2023-05-21T16:39:11.884Z,24.58
2023-05-21T16:41:38.628Z,24.73
2023-05-21T16:44:05.246Z,24.63
2023-05-21T16:46:31.921Z,24.39
2023-05-21T16:48:58.490Z,24.72
2023-05-21T16:51:25.096Z,24.73
2023-05-21T16:53:51.709Z,24.84
2023-05-21T16:56:18.356Z,24.76
2023-05-21T16:58:46.614Z,24.85
2023-05-21T17:01:13.332Z,24.80
2023-05-21T17:03:42.511Z,24.66
2023-05-21T17:06:10.068Z,24.02
2023-05-21T17:08:36.912Z,24.08
2023-05-21T17:11:03.597Z,24.11
2023-05-21T17:13:30.762Z,23.96
2023-05-21T17:15:57.319Z,23.80
2023-05-21T17:18:23.758Z,23.81
2023-05-21T17:20:50.408Z,23.52
2023-05-21T17:23:17.243Z,23.44
2023-05-21T17:25:44.205Z,23.51
2023-05-21T17:28:11.143Z,23.46
2023-05-21T17:30:37.916Z,23.40
2023-05-21T17:33:06.326Z,23.14
2023-05-21T17:35:34.292Z,22.98
2023-05-21T17:38:00.865Z,22.76
2023-05-21T17:40:27.224Z,22.68
2023-05-21T17:42:53.630Z,22.62
2023-05-21T17:45:20.326Z,22.60
2023-05-21T17:47:47.214Z,22.53
2023-05-21T17:50:13.719Z,22.54
2023-05-21T17:52:40.513Z,22.39
2023-05-21T17:55:07.886Z,22.37
2023-05-21T17:57:37.949Z,22.29
2023-05-21T18:00:06.647Z,22.30
2023-05-21T18:02:33.404Z,22.15
2023-05-21T18:05:00.043Z,22.11
2023-05-21T18:07:26.895Z,22.18
2023-05-21T18:09:53.410Z,22.12
2023-05-21T18:12:20.075Z,21.91
2023-05-21T18:14:46.641Z,21.83
2023-05-21T18:17:13.158Z,21.72
2023-05-21T18:19:39.679Z,21.69
2023-05-21T18:22:06.442Z,21.65
2023-05-21T18:24:32.947Z,21.58
2023-05-21T18:26:59.390Z,21.54
2023-05-21T18:29:25.986Z,21.46
2023-05-21T18:31:52.705Z,21.39
2023-05-21T18:34:19.223Z,21.33
2023-05-21T18:36:45.718Z,21.31
2023-05-21T18:39:12.595Z,21.26
2023-05-21T18:41:39.322Z,21.22
2023-05-21T18:44:06.249Z,21.25
2023-05-21T18:46:33.169Z,21.15
2023-05-21T18:49:00.399Z,21.14
2023-05-21T18:51:27.498Z,21.06
2023-05-21T18:53:54.177Z,21.03
2023-05-21T18:56:21.771Z,21.00
2023-05-21T18:58:48.527Z,20.97
2023-05-21T19:01:16.080Z,20.90
2023-05-21T19:03:42.881Z,20.86
2023-05-21T19:06:09.516Z,20.83
2023-05-21T19:08:36.291Z,20.74
2023-05-21T19:11:03.259Z,20.69
2023-05-21T19:13:30.053Z,20.58
2023-05-21T19:15:58.236Z,20.48
2023-05-21T19:18:30.312Z,20.41
2023-05-21T19:20:57.545Z,20.13
2023-05-21T19:23:24.767Z,20.30
2023-05-21T19:25:51.454Z,20.21
2023-05-21T19:28:18.922Z,20.16
2023-05-21T19:30:46.144Z,20.14
2023-05-21T19:33:12.718Z,20.15
2023-05-21T19:35:39.400Z,20.18
2023-05-21T19:38:06.705Z,20.11
2023-05-21T19:40:33.401Z,20.05
2023-05-21T19:42:59.917Z,19.84
2023-05-21T19:45:26.998Z,19.46
2023-05-21T19:47:53.816Z,19.30
2023-05-21T19:50:20.533Z,19.30
2023-05-21T19:52:47.163Z,19.52
2023-05-21T19:55:13.935Z,19.46
2023-05-21T19:57:40.608Z,19.45
2023-05-21T20:00:10.198Z,19.13
2023-05-21T20:02:37.105Z,18.90
2023-05-21T20:05:03.813Z,19.05
2023-05-21T20:07:30.361Z,18.85
2023-05-21T20:09:56.754Z,18.64
2023-05-21T20:12:23.212Z,18.59
2023-05-21T20:14:50.050Z,18.52
2023-05-21T20:17:18.827Z,18.55
2023-05-21T20:19:47.989Z,18.70
2023-05-21T20:22:17.950Z,18.52
2023-05-21T20:24:44.404Z,18.39
2023-05-21T20:27:10.952Z,18.44
2023-05-21T20:29:37.487Z,18.35
2023-05-21T20:32:04.100Z,18.25
2023-05-21T20:34:30.724Z,18.16
2023-05-21T20:36:58.214Z,18.12
2023-05-21T20:39:27.203Z,18.10
2023-05-21T20:41:54.977Z,18.01
2023-05-21T20:44:22.367Z,17.95
2023-05-21T20:46:48.994Z,17.94
2023-05-21T20:49:15.680Z,17.90
2023-05-21T20:51:42.323Z,18.03
2023-05-21T20:54:10.873Z,18.04
2023-05-21T20:56:42.597Z,17.89
2023-05-21T20:59:11.125Z,17.73
2023-05-21T21:01:39.112Z,17.79
2023-05-21T21:04:06.045Z,17.73
2023-05-21T21:06:32.580Z,17.70
2023-05-21T21:08:59.491Z,17.70
2023-05-21T21:11:27.067Z,17.66
2023-05-21T21:13:53.525Z,17.70
2023-05-21T21:16:20.073Z,17.76
2023-05-21T21:18:47.269Z,17.52
2023-05-21T21:21:13.941Z,17.29
2023-05-21T21:23:40.588Z,17.31
2023-05-21T21:26:07.273Z,17.36
2023-05-21T21:28:33.898Z,17.53
2023-05-21T21:31:00.714Z,17.49
2023-05-21T21:33:28.195Z,17.17
2023-05-21T21:35:54.839Z,17.29
2023-05-21T21:38:21.451Z,17.18
2023-05-21T21:40:48.050Z,17.15
2023-05-21T21:43:14.578Z,17.13
2023-05-21T21:45:41.218Z,16.91
2023-05-21T21:48:07.960Z,17.04
2023-05-21T21:50:34.572Z,16.94
2023-05-21T21:53:01.195Z,16.89
2023-05-21T21:55:29.483Z,17.02
2023-05-21T21:57:56.606Z,16.90
2023-05-21T22:00:26.498Z,16.85
2023-05-21T22:02:53.859Z,16.75
2023-05-21T22:05:20.814Z,16.82
2023-05-21T22:07:47.640Z,16.84
2023-05-21T22:10:15.320Z,16.82
2023-05-21T22:12:43.095Z,16.73
2023-05-21T22:15:18.357Z,16.71
2023-05-21T22:17:47.511Z,16.76
2023-05-21T22:20:14.739Z,16.67
2023-05-21T22:22:41.755Z,16.64
2023-05-21T22:25:08.449Z,16.62
2023-05-21T22:27:35.327Z,16.65
2023-05-21T22:30:02.446Z,16.60
2023-05-21T22:32:29.221Z,16.55
2023-05-21T22:34:55.747Z,16.57
2023-05-21T22:37:23.550Z,16.54
2023-05-21T22:39:50.187Z,16.51
2023-05-21T22:42:16.794Z,16.48
2023-05-21T22:44:43.431Z,16.34
2023-05-21T22:47:10.005Z,16.40
2023-05-21T22:49:38.041Z,16.44
2023-05-21T22:52:06.132Z,16.39
2023-05-21T22:54:32.846Z,16.28
2023-05-21T22:57:01.051Z,16.25
2023-05-21T22:59:32.295Z,16.21
2023-05-21T23:01:59.270Z,16.18
2023-05-21T23:04:42.663Z,16.18
2023-05-21T23:07:10.358Z,16.24
2023-05-21T23:09:36.742Z,16.14
2023-05-21T23:12:03.967Z,16.10
2023-05-21T23:14:30.736Z,16.20
2023-05-21T23:17:01.790Z,16.27
2023-05-21T23:19:29.345Z,16.13
2023-05-21T23:21:56.208Z,15.92
2023-05-21T23:24:22.840Z,15.91
2023-05-21T23:26:49.434Z,15.98
2023-05-21T23:29:15.940Z,16.05
2023-05-21T23:31:43.480Z,15.84
2023-05-21T23:34:10.667Z,15.83
2023-05-21T23:36:37.445Z,15.84
2023-05-21T23:39:04.041Z,15.79
2023-05-21T23:41:30.573Z,15.75
2023-05-21T23:43:57.067Z,15.69
2023-05-21T23:46:23.695Z,15.68
2023-05-21T23:48:50.573Z,15.63
2023-05-21T23:51:19.109Z,15.72
2023-05-21T23:53:45.745Z,15.76
2023-05-21T23:56:12.247Z,15.78
2023-05-21T23:58:38.804Z,15.62
